createdAt,value
2023-04-26T00:01:05.751Z,98.35
2023-04-26T00:03:33.005Z,98.98
2023-04-26T00:06:03.922Z,99.87
2023-04-26T00:08:31.223Z,100.00
2023-04-26T00:10:59.560Z,100.00
2023-04-26T00:13:27.123Z,100.00
2023-04-26T00:15:54.525Z,100.00
2023-04-26T00:18:22.002Z,100.00
2023-04-26T00:20:49.124Z,100.00
2023-04-26T00:23:16.375Z,99.44
2023-04-26T00:25:43.950Z,99.61
2023-04-26T00:28:11.371Z,99.35
2023-04-26T00:30:41.736Z,99.04
2023-04-26T00:33:10.299Z,99.54
2023-04-26T00:35:38.557Z,100.00
2023-04-26T00:38:06.396Z,100.00
2023-04-26T00:40:35.520Z,100.00
2023-04-26T00:43:04.514Z,100.00
2023-04-26T00:45:31.978Z,100.00
2023-04-26T00:48:03.606Z,100.00
2023-04-26T00:50:31.677Z,100.00
2023-04-26T00:53:00.056Z,100.00
2023-04-26T00:55:27.674Z,100.00
2023-04-26T00:57:55.473Z,100.00
2023-04-26T01:00:23.116Z,100.00
2023-04-26T01:02:51.469Z,99.50
2023-04-26T01:05:19.538Z,98.57
2023-04-26T01:07:46.901Z,98.27
2023-04-26T01:10:14.019Z,97.59
2023-04-26T01:12:41.716Z,97.52
2023-04-26T01:15:10.951Z,97.67
2023-04-26T01:17:40.680Z,99.77
2023-04-26T01:20:13.106Z,99.69
2023-04-26T01:22:40.414Z,98.01
2023-04-26T01:25:09.576Z,98.35
2023-04-26T01:27:37.048Z,100.00
2023-04-26T01:30:04.396Z,100.00
2023-04-26T01:32:31.597Z,100.00
2023-04-26T01:35:00.630Z,97.95
2023-04-26T01:37:30.383Z,98.16
2023-04-26T01:39:59.734Z,98.50
2023-04-26T01:42:27.346Z,98.82
2023-04-26T01:44:54.641Z,100.00
2023-04-26T01:47:22.235Z,100.00
2023-04-26T01:49:49.407Z,100.00
2023-04-26T01:52:16.964Z,100.00
2023-04-26T01:54:46.465Z,99.48
2023-04-26T01:57:13.674Z,98.90
2023-04-26T01:59:40.937Z,100.00
2023-04-26T02:02:08.385Z,98.69
2023-04-26T02:04:39.064Z,97.96
2023-04-26T02:07:06.643Z,98.40
2023-04-26T02:09:34.469Z,97.26
2023-04-26T02:12:03.177Z,96.90
2023-04-26T02:14:30.694Z,97.15
2023-04-26T02:16:58.007Z,96.76
2023-04-26T02:19:25.575Z,96.01
2023-04-26T02:21:52.924Z,96.19
2023-04-26T02:24:20.151Z,95.93
2023-04-26T02:26:47.536Z,95.02
2023-04-26T02:29:15.291Z,94.81
2023-04-26T02:31:43.019Z,94.70
2023-04-26T02:34:10.724Z,94.91
2023-04-26T02:36:38.578Z,94.41
2023-04-26T02:39:06.344Z,93.98
2023-04-26T02:41:33.995Z,94.24
2023-04-26T02:44:01.821Z,96.24
2023-04-26T02:46:29.241Z,96.59
2023-04-26T02:48:56.784Z,97.18
2023-04-26T02:51:24.408Z,96.90
2023-04-26T02:53:51.744Z,96.88
2023-04-26T02:56:19.643Z,97.32
2023-04-26T02:58:47.411Z,96.95
2023-04-26T03:01:15.883Z,96.68
2023-04-26T03:03:43.689Z,97.76
2023-04-26T03:06:11.091Z,97.70
2023-04-26T03:08:56.835Z,100.00
2023-04-26T03:11:24.287Z,99.84
2023-04-26T03:13:51.640Z,100.00
2023-04-26T03:16:24.199Z,100.00
2023-04-26T03:18:51.912Z,100.00
2023-04-26T03:21:21.583Z,100.00
2023-04-26T03:23:50.227Z,100.00
2023-04-26T03:26:17.367Z,100.00
2023-04-26T03:28:44.900Z,100.00
2023-04-26T03:31:12.169Z,100.00
2023-04-26T03:33:40.080Z,100.00
2023-04-26T03:36:08.089Z,100.00
2023-04-26T03:38:36.425Z,99.01
2023-04-26T03:41:04.436Z,99.55
2023-04-26T03:43:32.245Z,100.00
2023-04-26T03:46:01.657Z,100.00
2023-04-26T03:48:28.698Z,99.58
2023-04-26T03:50:56.180Z,98.84
2023-04-26T03:53:23.622Z,98.93
2023-04-26T03:55:50.835Z,98.55
2023-04-26T03:58:18.219Z,97.85
2023-04-26T04:00:45.467Z,97.89
2023-04-26T04:03:13.130Z,97.19
2023-04-26T04:05:41.162Z,96.39
2023-04-26T04:08:08.688Z,96.43
2023-04-26T04:10:38.146Z,96.08
2023-04-26T04:13:05.307Z,95.91
2023-04-26T04:15:32.914Z,94.97
2023-04-26T04:18:00.390Z,94.38
2023-04-26T04:20:27.502Z,93.14
2023-04-26T04:22:58.773Z,92.35
2023-04-26T04:25:26.738Z,91.14
2023-04-26T04:27:55.868Z,90.47
2023-04-26T04:30:23.473Z,89.05
2023-04-26T04:32:51.201Z,88.71
2023-04-26T04:35:19.632Z,88.35
2023-04-26T04:37:47.971Z,87.99
2023-04-26T04:40:16.634Z,87.68
2023-04-26T04:42:46.652Z,86.90
2023-04-26T04:45:15.723Z,86.37
2023-04-26T04:47:46.676Z,86.33
2023-04-26T04:50:14.896Z,86.25
2023-04-26T04:52:43.785Z,86.34
2023-04-26T04:55:15.163Z,86.17
2023-04-26T04:57:43.364Z,85.33
2023-04-26T05:00:16.419Z,85.07
2023-04-26T05:03:05.483Z,84.88
2023-04-26T05:05:33.520Z,84.68
2023-04-26T05:08:03.738Z,84.09
2023-04-26T05:10:31.622Z,83.24
2023-04-26T05:12:59.384Z,82.96
2023-04-26T05:15:26.884Z,82.55
2023-04-26T05:17:56.455Z,82.79
2023-04-26T05:20:26.432Z,81.78
2023-04-26T05:22:53.945Z,81.73
2023-04-26T05:25:22.589Z,81.26
2023-04-26T05:27:54.865Z,79.79
2023-04-26T05:30:36.722Z,79.93
2023-04-26T05:33:26.999Z,79.52
2023-04-26T05:35:58.516Z,78.17
2023-04-26T05:38:26.742Z,78.06
2023-04-26T05:40:54.592Z,77.51
2023-04-26T05:43:22.708Z,78.16
2023-04-26T05:45:54.664Z,78.24
2023-04-26T05:48:24.244Z,78.73
2023-04-26T05:50:52.485Z,80.78
2023-04-26T05:53:20.779Z,80.96
2023-04-26T05:55:48.891Z,82.98
2023-04-26T05:58:16.404Z,84.06
2023-04-26T06:00:44.474Z,85.22
2023-04-26T06:03:13.473Z,84.93
2023-04-26T06:05:42.025Z,84.71
2023-04-26T06:08:10.573Z,85.85
2023-04-26T06:10:44.219Z,87.39
2023-04-26T06:13:11.876Z,89.94
2023-04-26T06:15:39.844Z,92.72
2023-04-26T06:18:08.172Z,95.31
2023-04-26T06:20:36.410Z,96.07
2023-04-26T06:23:06.562Z,97.67
2023-04-26T06:25:34.535Z,97.52
2023-04-26T06:28:02.239Z,96.99
2023-04-26T06:30:29.744Z,96.96
2023-04-26T06:33:00.219Z,95.94
2023-04-26T06:35:28.627Z,95.06
2023-04-26T06:37:58.032Z,93.74
2023-04-26T06:40:26.754Z,93.18
2023-04-26T06:42:55.496Z,92.75
2023-04-26T06:45:35.331Z,92.21
2023-04-26T06:48:04.859Z,92.07
2023-04-26T06:50:33.751Z,91.63
2023-04-26T06:53:01.512Z,91.86
2023-04-26T06:55:29.669Z,92.78
2023-04-26T06:57:57.252Z,93.31
2023-04-26T07:00:24.226Z,94.08
2023-04-26T07:02:52.017Z,94.45
2023-04-26T07:05:19.590Z,94.81
2023-04-26T07:07:47.200Z,95.24
2023-04-26T07:10:14.429Z,95.40
2023-04-26T07:12:59.133Z,92.17
2023-04-26T07:15:26.670Z,90.56
2023-04-26T07:17:54.198Z,87.81
2023-04-26T07:20:22.926Z,83.56
2023-04-26T07:22:51.322Z,81.70
2023-04-26T07:25:19.127Z,78.15
2023-04-26T07:27:46.555Z,72.96
2023-04-26T07:30:15.428Z,70.12
2023-04-26T07:32:42.630Z,65.69
2023-04-26T07:35:16.470Z,66.11
2023-04-26T07:37:45.368Z,63.33
2023-04-26T07:40:14.849Z,64.09
2023-04-26T07:42:42.393Z,61.52
2023-04-26T07:45:10.967Z,62.08
2023-04-26T07:47:38.344Z,61.49
2023-04-26T07:50:06.743Z,61.60
2023-04-26T07:52:34.724Z,60.27
2023-04-26T07:55:01.894Z,59.14
2023-04-26T07:57:28.850Z,60.27
2023-04-26T07:59:56.945Z,60.12
2023-04-26T08:02:36.858Z,59.10
2023-04-26T08:05:11.907Z,59.23
2023-04-26T08:07:39.407Z,60.21
2023-04-26T08:10:07.712Z,58.85
2023-04-26T08:12:36.162Z,61.41
2023-04-26T08:15:22.165Z,62.06
2023-04-26T08:17:53.200Z,64.60
2023-04-26T08:20:20.923Z,64.20
2023-04-26T08:22:48.635Z,66.05
2023-04-26T08:25:17.044Z,66.78
2023-04-26T08:27:45.247Z,66.73
2023-04-26T08:30:14.928Z,64.78
2023-04-26T08:32:41.915Z,67.96
2023-04-26T08:35:10.435Z,69.10
2023-04-26T08:37:38.562Z,67.01
2023-04-26T08:40:13.998Z,68.21
2023-04-26T08:42:44.268Z,66.95
2023-04-26T08:45:12.020Z,67.49
2023-04-26T08:47:44.941Z,67.74
2023-04-26T08:50:14.955Z,65.23
2023-04-26T08:52:43.906Z,65.14
2023-04-26T08:55:16.818Z,65.32
2023-04-26T08:57:47.848Z,65.29
2023-04-26T09:00:16.625Z,66.38
2023-04-26T09:02:50.029Z,67.85
2023-04-26T09:05:18.465Z,67.92
2023-04-26T09:07:47.190Z,70.90
2023-04-26T09:10:20.219Z,73.54
2023-04-26T09:12:47.869Z,74.69
2023-04-26T09:15:15.829Z,77.01
2023-04-26T09:17:43.620Z,78.18
2023-04-26T09:20:30.794Z,80.26
2023-04-26T09:23:06.086Z,82.14
2023-04-26T09:25:34.108Z,83.18
2023-04-26T09:28:03.945Z,83.67
2023-04-26T09:30:38.357Z,84.56
2023-04-26T09:33:07.003Z,85.33
2023-04-26T09:35:39.433Z,85.79
2023-04-26T09:38:13.199Z,86.58
2023-04-26T09:40:45.872Z,87.59
2023-04-26T09:43:16.333Z,87.89
2023-04-26T09:45:53.811Z,88.76
2023-04-26T09:48:23.157Z,90.49
2023-04-26T09:50:53.099Z,92.46
2023-04-26T09:53:34.371Z,93.54
2023-04-26T09:56:21.359Z,94.55
2023-04-26T09:58:52.607Z,94.57
2023-04-26T10:01:20.642Z,95.79
2023-04-26T10:03:47.917Z,97.92
2023-04-26T10:06:18.465Z,96.16
2023-04-26T10:08:46.133Z,95.74
2023-04-26T10:11:14.224Z,96.00
2023-04-26T10:13:42.348Z,96.09
2023-04-26T10:16:10.730Z,95.83
2023-04-26T10:18:41.792Z,96.57
2023-04-26T10:21:17.124Z,96.48
2023-04-26T10:23:45.234Z,96.33
2023-04-26T10:26:51.667Z,96.88
2023-04-26T10:29:19.811Z,99.19
2023-04-26T10:32:06.161Z,100.00
2023-04-26T10:34:36.936Z,100.00
2023-04-26T10:37:11.485Z,100.00
2023-04-26T10:39:44.103Z,100.00
2023-04-26T10:42:24.714Z,100.00
2023-04-26T10:45:22.498Z,100.00
2023-04-26T10:47:49.862Z,100.00
2023-04-26T10:50:17.100Z,100.00
2023-04-26T10:53:04.148Z,100.00
2023-04-26T10:55:44.028Z,100.00
2023-04-26T10:58:30.570Z,100.00
2023-04-26T11:01:13.764Z,100.00
2023-04-26T11:03:42.083Z,100.00
2023-04-26T11:06:14.021Z,100.00
2023-04-26T11:08:43.617Z,100.00
2023-04-26T11:11:13.204Z,100.00
2023-04-26T11:13:43.025Z,100.00
2023-04-26T11:16:14.861Z,100.00
2023-04-26T11:18:47.577Z,100.00
2023-04-26T11:21:17.603Z,100.00
2023-04-26T11:23:54.271Z,100.00
2023-04-26T11:26:22.103Z,100.00
2023-04-26T11:28:49.986Z,100.00
2023-04-26T11:31:19.437Z,100.00
2023-04-26T11:33:49.902Z,100.00
2023-04-26T11:36:19.922Z,100.00
2023-04-26T11:38:48.012Z,100.00
2023-04-26T11:41:15.526Z,100.00
2023-04-26T11:43:44.102Z,100.00
2023-04-26T11:46:11.856Z,100.00
2023-04-26T11:48:40.088Z,100.00
2023-04-26T11:51:09.410Z,100.00
2023-04-26T11:53:42.693Z,100.00
2023-04-26T11:56:20.780Z,100.00
2023-04-26T11:58:53.023Z,100.00
2023-04-26T12:01:26.320Z,100.00
2023-04-26T12:03:56.016Z,100.00
2023-04-26T12:06:42.936Z,100.00
2023-04-26T12:09:11.565Z,100.00
2023-04-26T12:11:41.713Z,99.10
2023-04-26T12:14:10.586Z,98.54
2023-04-26T12:16:38.467Z,95.99
2023-04-26T12:19:09.589Z,94.03
2023-04-26T12:21:43.927Z,91.22
2023-04-26T12:24:23.895Z,89.56
2023-04-26T12:26:50.973Z,88.62
2023-04-26T12:29:18.751Z,84.03
2023-04-26T12:31:47.233Z,81.93
2023-04-26T12:34:14.759Z,81.62
2023-04-26T12:36:45.008Z,81.33
2023-04-26T12:39:14.024Z,78.52
2023-04-26T12:41:45.334Z,77.57
2023-04-26T12:44:13.044Z,76.21
2023-04-26T12:46:40.715Z,75.85
2023-04-26T12:49:08.267Z,75.56
2023-04-26T12:51:35.628Z,73.12
2023-04-26T12:54:02.840Z,73.10
2023-04-26T12:56:30.613Z,73.02
2023-04-26T12:58:57.481Z,69.92
2023-04-26T13:01:24.632Z,69.99
2023-04-26T13:03:52.362Z,70.45
2023-04-26T13:06:21.554Z,69.50
2023-04-26T13:08:49.103Z,71.10
2023-04-26T13:11:16.970Z,69.75
2023-04-26T13:13:44.848Z,71.05
2023-04-26T13:16:13.349Z,69.17
2023-04-26T13:18:41.864Z,70.59
2023-04-26T13:21:09.629Z,72.29
2023-04-26T13:23:37.553Z,72.93
2023-04-26T13:26:05.339Z,73.64
2023-04-26T13:28:32.906Z,74.50
2023-04-26T13:31:00.580Z,73.84
2023-04-26T13:33:28.426Z,74.00
2023-04-26T13:35:56.346Z,73.18
2023-04-26T13:38:23.701Z,72.57
2023-04-26T13:40:51.645Z,75.13
2023-04-26T13:43:18.989Z,74.19
2023-04-26T13:45:46.354Z,74.54
2023-04-26T13:48:13.919Z,75.27
2023-04-26T13:50:42.878Z,75.11
2023-04-26T13:53:11.228Z,74.40
2023-04-26T13:55:38.464Z,73.98
2023-04-26T13:58:06.414Z,73.04
2023-04-26T14:00:34.691Z,74.52
2023-04-26T14:03:02.267Z,75.38
2023-04-26T14:05:29.747Z,76.81
2023-04-26T14:07:57.593Z,79.39
2023-04-26T14:10:24.889Z,81.19
2023-04-26T14:12:52.337Z,82.58
2023-04-26T14:15:19.651Z,83.13
2023-04-26T14:17:49.982Z,83.84
2023-04-26T14:20:18.013Z,83.78
2023-04-26T14:22:46.211Z,84.03
2023-04-26T14:25:13.985Z,84.16
2023-04-26T14:27:42.015Z,85.23
2023-04-26T14:30:09.573Z,86.31
2023-04-26T14:32:37.006Z,88.30
2023-04-26T14:35:05.954Z,88.82
2023-04-26T14:37:33.976Z,88.65
2023-04-26T14:40:01.886Z,91.93
2023-04-26T14:42:29.750Z,93.32
2023-04-26T14:45:00.303Z,94.26
2023-04-26T14:47:27.647Z,96.40
2023-04-26T14:49:56.070Z,97.86
2023-04-26T14:52:26.953Z,99.18
2023-04-26T14:54:53.904Z,99.04
2023-04-26T14:57:20.720Z,100.00
2023-04-26T14:59:48.548Z,100.00
2023-04-26T15:02:15.944Z,100.00
2023-04-26T15:04:44.090Z,100.00
2023-04-26T15:07:20.995Z,100.00
2023-04-26T15:09:56.006Z,100.00
2023-04-26T15:12:23.097Z,100.00
2023-04-26T15:14:50.163Z,100.00
2023-04-26T15:17:17.954Z,100.00
2023-04-26T15:19:45.420Z,100.00
2023-04-26T15:22:13.344Z,100.00
2023-04-26T15:24:41.722Z,100.00
2023-04-26T15:27:10.227Z,100.00
2023-04-26T15:29:37.768Z,100.00
2023-04-26T15:32:05.411Z,100.00
2023-04-26T15:34:45.775Z,100.00
2023-04-26T15:37:13.622Z,100.00
2023-04-26T15:39:41.102Z,100.00
2023-04-26T15:42:09.161Z,100.00
2023-04-26T15:44:37.730Z,100.00
2023-04-26T15:47:07.105Z,100.00
2023-04-26T15:49:34.554Z,100.00
2023-04-26T15:52:02.235Z,100.00
2023-04-26T15:54:30.219Z,100.00
2023-04-26T15:56:58.545Z,100.00
2023-04-26T15:59:27.027Z,100.00
2023-04-26T16:01:54.219Z,100.00
2023-04-26T16:04:21.752Z,100.00
2023-04-26T16:06:49.812Z,100.00
2023-04-26T16:09:25.414Z,100.00
2023-04-26T16:11:53.491Z,100.00
2023-04-26T16:14:21.027Z,100.00
2023-04-26T16:16:50.896Z,100.00
2023-04-26T16:19:18.938Z,100.00
2023-04-26T16:21:46.390Z,100.00
2023-04-26T16:24:13.419Z,100.00
2023-04-26T16:26:40.307Z,100.00
2023-04-26T16:29:08.589Z,100.00
2023-04-26T16:31:35.974Z,100.00
2023-04-26T16:34:03.571Z,100.00
2023-04-26T16:36:31.722Z,100.00
2023-04-26T16:38:59.250Z,100.00
2023-04-26T16:41:28.155Z,100.00
2023-04-26T16:43:56.188Z,100.00
2023-04-26T16:46:23.667Z,100.00
2023-04-26T16:48:51.905Z,100.00
2023-04-26T16:51:19.487Z,100.00
2023-04-26T16:53:59.128Z,100.00
2023-04-26T16:56:27.234Z,100.00
2023-04-26T16:58:54.512Z,100.00
2023-04-26T17:01:21.810Z,100.00
2023-04-26T17:03:49.334Z,100.00
2023-04-26T17:06:16.286Z,100.00
2023-04-26T17:08:43.870Z,100.00
2023-04-26T17:11:15.787Z,100.00
2023-04-26T17:13:43.978Z,100.00
2023-04-26T17:16:11.278Z,100.00
2023-04-26T17:18:38.754Z,100.00
2023-04-26T17:21:06.383Z,100.00
2023-04-26T17:23:34.910Z,100.00
2023-04-26T17:26:02.610Z,100.00
2023-04-26T17:28:29.689Z,100.00
2023-04-26T17:30:57.271Z,100.00
2023-04-26T17:33:25.589Z,100.00
2023-04-26T17:35:52.759Z,100.00
2023-04-26T17:38:20.799Z,100.00
2023-04-26T17:40:53.553Z,100.00
2023-04-26T17:43:21.402Z,100.00
2023-04-26T17:45:48.539Z,100.00
2023-04-26T17:48:16.246Z,100.00
2023-04-26T17:50:43.960Z,100.00
2023-04-26T17:53:11.910Z,100.00
2023-04-26T17:55:39.606Z,100.00
2023-04-26T17:58:06.720Z,100.00
2023-04-26T18:00:34.076Z,100.00
2023-04-26T18:03:03.360Z,100.00
2023-04-26T18:05:30.932Z,100.00
2023-04-26T18:07:59.645Z,100.00
2023-04-26T18:10:26.822Z,100.00
2023-04-26T18:12:54.397Z,100.00
2023-04-26T18:15:21.649Z,100.00
2023-04-26T18:17:49.649Z,100.00
2023-04-26T18:20:17.432Z,100.00
2023-04-26T18:22:45.182Z,100.00
2023-04-26T18:25:12.457Z,100.00
2023-04-26T18:27:39.955Z,100.00
2023-04-26T18:30:08.474Z,100.00
2023-04-26T18:32:36.698Z,100.00
2023-04-26T18:35:06.569Z,100.00
2023-04-26T18:37:33.988Z,100.00
2023-04-26T18:40:01.571Z,100.00
2023-04-26T18:42:28.752Z,100.00
2023-04-26T18:44:56.678Z,100.00
2023-04-26T18:47:24.532Z,100.00
2023-04-26T18:49:51.335Z,100.00
2023-04-26T18:52:19.298Z,100.00
2023-04-26T18:54:47.905Z,100.00
2023-04-26T18:57:18.522Z,100.00
2023-04-26T18:59:46.080Z,100.00
2023-04-26T19:02:13.813Z,100.00
2023-04-26T19:04:41.849Z,100.00
2023-04-26T19:07:09.442Z,100.00
2023-04-26T19:09:50.357Z,100.00
2023-04-26T19:12:18.389Z,100.00
2023-04-26T19:14:45.456Z,100.00
2023-04-26T19:17:12.262Z,100.00
2023-04-26T19:19:39.214Z,100.00
2023-04-26T19:22:06.517Z,100.00
2023-04-26T19:24:34.073Z,100.00
2023-04-26T19:27:01.436Z,100.00
2023-04-26T19:29:28.784Z,100.00
2023-04-26T19:31:56.202Z,100.00
2023-04-26T19:34:23.725Z,100.00
2023-04-26T19:36:50.568Z,100.00
2023-04-26T19:39:18.071Z,100.00
2023-04-26T19:41:45.616Z,100.00
2023-04-26T19:44:13.155Z,100.00
2023-04-26T19:46:41.556Z,100.00
2023-04-26T19:49:09.323Z,100.00
2023-04-26T19:51:36.439Z,100.00
2023-04-26T19:54:04.156Z,100.00
2023-04-26T19:56:31.747Z,100.00
2023-04-26T19:58:58.879Z,100.00
2023-04-26T20:01:26.415Z,100.00
2023-04-26T20:03:53.926Z,100.00
2023-04-26T20:06:21.273Z,100.00
2023-04-26T20:08:48.609Z,100.00
2023-04-26T20:11:17.293Z,100.00
2023-04-26T20:13:45.188Z,100.00
2023-04-26T20:16:13.073Z,100.00
2023-04-26T20:18:40.079Z,100.00
2023-04-26T20:21:07.408Z,100.00
2023-04-26T20:23:34.851Z,100.00
2023-04-26T20:26:02.958Z,100.00
2023-04-26T20:28:30.200Z,100.00
2023-04-26T20:30:57.465Z,100.00
2023-04-26T20:33:25.372Z,100.00
2023-04-26T20:35:53.400Z,100.00
2023-04-26T20:38:21.842Z,100.00
2023-04-26T20:40:50.331Z,100.00
2023-04-26T20:43:17.170Z,100.00
2023-04-26T20:45:44.139Z,100.00
2023-04-26T20:48:11.494Z,100.00
2023-04-26T20:50:38.632Z,100.00
2023-04-26T20:53:06.037Z,100.00
2023-04-26T20:56:29.851Z,100.00
2023-04-26T20:59:03.094Z,100.00
2023-04-26T21:01:30.907Z,100.00
2023-04-26T21:03:58.031Z,100.00
2023-04-26T21:06:25.771Z,100.00
2023-04-26T21:08:53.308Z,100.00
2023-04-26T21:11:20.705Z,100.00
2023-04-26T21:13:48.838Z,100.00
2023-04-26T21:16:16.220Z,100.00
2023-04-26T21:18:43.927Z,100.00
2023-04-26T21:21:11.310Z,100.00
2023-04-26T21:23:38.587Z,100.00
2023-04-26T21:26:06.126Z,100.00
2023-04-26T21:28:33.345Z,100.00
2023-04-26T21:31:07.867Z,100.00
2023-04-26T21:33:35.135Z,100.00
2023-04-26T21:36:01.875Z,100.00
2023-04-26T21:38:29.272Z,100.00
2023-04-26T21:40:56.062Z,100.00
2023-04-26T21:43:23.707Z,100.00
2023-04-26T21:45:52.553Z,100.00
2023-04-26T21:48:19.890Z,100.00
2023-04-26T21:50:50.078Z,100.00
2023-04-26T21:53:19.687Z,100.00
2023-04-26T21:55:54.238Z,100.00
2023-04-26T21:58:22.409Z,100.00
2023-04-26T22:00:50.225Z,100.00
2023-04-26T22:03:17.686Z,100.00
2023-04-26T22:05:45.202Z,100.00
2023-04-26T22:08:12.282Z,100.00
2023-04-26T22:10:39.412Z,100.00
2023-04-26T22:13:06.309Z,100.00
2023-04-26T22:15:58.663Z,100.00
2023-04-26T22:18:26.697Z,100.00
2023-04-26T22:20:54.216Z,100.00
2023-04-26T22:23:21.673Z,100.00
2023-04-26T22:25:49.018Z,100.00
2023-04-26T22:28:16.678Z,100.00
2023-04-26T22:30:43.661Z,100.00
2023-04-26T22:33:12.421Z,100.00
2023-04-26T22:35:39.902Z,100.00
2023-04-26T22:38:06.692Z,100.00
2023-04-26T22:40:34.000Z,100.00
2023-04-26T22:43:01.392Z,100.00
2023-04-26T22:45:28.696Z,100.00
2023-04-26T22:47:55.888Z,100.00
2023-04-26T22:50:23.198Z,100.00
2023-04-26T22:52:50.914Z,100.00
2023-04-26T22:55:18.169Z,100.00
2023-04-26T22:57:45.536Z,100.00
2023-04-26T23:00:14.260Z,100.00
2023-04-26T23:02:41.938Z,100.00
2023-04-26T23:05:10.482Z,100.00
2023-04-26T23:07:38.342Z,100.00
2023-04-26T23:10:07.020Z,100.00
2023-04-26T23:12:34.184Z,100.00
2023-04-26T23:15:02.132Z,100.00
2023-04-26T23:17:29.563Z,100.00
2023-04-26T23:19:56.763Z,100.00
2023-04-26T23:22:23.644Z,100.00
2023-04-26T23:24:51.683Z,100.00
2023-04-26T23:27:21.097Z,100.00
2023-04-26T23:29:50.125Z,100.00
2023-04-26T23:32:17.347Z,100.00
2023-04-26T23:34:44.548Z,100.00
2023-04-26T23:37:11.728Z,100.00
2023-04-26T23:39:38.941Z,100.00
2023-04-26T23:42:06.871Z,100.00
2023-04-26T23:44:34.255Z,100.00
2023-04-26T23:47:01.277Z,100.00
2023-04-26T23:49:28.713Z,100.00
2023-04-26T23:51:56.032Z,100.00
2023-04-26T23:54:23.224Z,100.00
2023-04-26T23:56:50.374Z,100.00
2023-04-26T23:59:17.470Z,100.00
